Time;durP1;ratioP1;P1;durP2;ratioP2;P2;SDS_P1;SDS_P2;PMS_P1;PMS_P2;Temp;Humidity;BMP_temperature;BMP_pressure;BME280_temperature;BME280_humidity;BME280_pressure;Samples;Min_cycle;Max_cycle;Signal;HPM_P1;HPM_P2
2023/03/18 00:02:20;;;;;;;5.18;2.60;;;;;;;;;;5011315;28;20037;-57
2023/03/18 00:04:47;;;;;;;6.47;2.33;;;;;;;;;;5011688;28;20101;-55
2023/03/18 00:07:14;;;;;;;5.15;2.38;;;;;;;;;;5010164;28;20077;-58
2023/03/18 00:09:41;;;;;;;6.25;2.63;;;;;;;;;;5011364;28;20056;-58
2023/03/18 00:12:07;;;;;;;7.15;2.70;;;;;;;;;;5010267;28;20044;-56
2023/03/18 00:14:38;;;;;;;9.52;2.83;;;;;;;;;;5012047;28;20057;-56
2023/03/18 00:17:05;;;;;;;6.35;2.45;;;;;;;;;;5011331;28;20061;-58
2023/03/18 00:19:32;;;;;;;6.50;3.00;;;;;;;;;;5009122;28;20033;-55
2023/03/18 00:21:59;;;;;;;6.97;3.20;;;;;;;;;;5011093;28;20037;-56
2023/03/18 00:24:27;;;;;;;8.70;2.80;;;;;;;;;;5010957;28;20336;-58
2023/03/18 00:26:54;;;;;;;7.55;3.30;;;;;;;;;;5010492;28;20042;-58
2023/03/18 00:29:21;;;;;;;8.30;3.40;;;;;;;;;;5010789;28;20052;-56
2023/03/18 00:31:48;;;;;;;11.95;3.17;;;;;;;;;;5011271;28;20115;-60
2023/03/18 00:34:15;;;;;;;8.65;3.03;;;;;;;;;;5011179;28;20551;-57
2023/03/18 00:36:43;;;;;;;9.50;2.83;;;;;;;;;;5009716;28;20065;-58
2023/03/18 00:39:10;;;;;;;7.43;2.72;;;;;;;;;;5011581;28;20045;-59
2023/03/18 00:41:36;;;;;;;8.85;3.05;;;;;;;;;;5010613;28;20049;-59
2023/03/18 00:44:03;;;;;;;8.57;2.80;;;;;;;;;;5010085;28;20088;-60
2023/03/18 00:46:31;;;;;;;14.35;3.40;;;;;;;;;;5008677;28;20124;-58
2023/03/18 00:48:59;;;;;;;13.20;4.38;;;;;;;;;;5011333;28;20469;-59
2023/03/18 00:51:26;;;;;;;13.82;3.50;;;;;;;;;;5008912;28;20502;-58
2023/03/18 00:53:55;;;;;;;6.40;2.83;;;;;;;;;;5012004;28;20111;-59
2023/03/18 00:56:22;;;;;;;9.60;3.42;;;;;;;;;;5008183;28;20049;-60
2023/03/18 00:58:49;;;;;;;7.57;3.25;;;;;;;;;;5009370;28;20129;-59
2023/03/18 01:01:16;;;;;;;11.82;3.53;;;;;;;;;;5010074;28;20069;-60
2023/03/18 01:03:43;;;;;;;9.68;3.35;;;;;;;;;;5009381;28;20057;-58
2023/03/18 01:06:11;;;;;;;7.90;3.30;;;;;;;;;;5009598;28;20049;-59
2023/03/18 01:08:38;;;;;;;8.57;3.80;;;;;;;;;;5010890;28;20085;-57
2023/03/18 01:11:05;;;;;;;7.80;2.60;;;;;;;;;;5009732;28;20038;-59
2023/03/18 01:13:32;;;;;;;8.13;3.10;;;;;;;;;;5008972;28;20034;-59
2023/03/18 01:15:59;;;;;;;11.52;3.53;;;;;;;;;;5009913;28;20049;-58
2023/03/18 01:18:26;;;;;;;8.15;3.28;;;;;;;;;;5010811;28;20507;-59
2023/03/18 01:20:53;;;;;;;10.45;3.67;;;;;;;;;;5009501;28;20052;-58
2023/03/18 01:23:19;;;;;;;8.15;3.35;;;;;;;;;;5009325;28;20043;-58
2023/03/18 01:25:46;;;;;;;7.95;3.38;;;;;;;;;;5010211;28;20034;-61
2023/03/18 01:28:13;;;;;;;8.45;4.15;;;;;;;;;;5011352;28;20061;-59
2023/03/18 01:30:41;;;;;;;9.43;4.25;;;;;;;;;;5009918;28;20226;-59
2023/03/18 01:33:07;;;;;;;8.52;4.22;;;;;;;;;;5010479;28;20187;-61
2023/03/18 01:35:35;;;;;;;8.75;4.05;;;;;;;;;;5008499;28;20053;-59
2023/03/18 01:38:03;;;;;;;14.00;5.15;;;;;;;;;;5009264;28;20042;-60
2023/03/18 01:40:30;;;;;;;10.68;4.70;;;;;;;;;;5010153;28;20033;-59
2023/03/18 01:43:18;;;;;;;9.02;3.70;;;;;;;;;;5008830;28;20128;-58
2023/03/18 01:45:48;;;;;;;12.27;3.90;;;;;;;;;;5001514;28;20045;-61
2023/03/18 01:48:16;;;;;;;14.82;5.28;;;;;;;;;;5011213;28;20104;-58
2023/03/18 01:50:43;;;;;;;9.18;3.75;;;;;;;;;;5009781;28;20116;-60
2023/03/18 01:53:12;;;;;;;11.20;4.93;;;;;;;;;;5011404;28;20052;-58
2023/03/18 01:55:39;;;;;;;14.43;5.30;;;;;;;;;;5012740;28;20565;-58
2023/03/18 01:58:08;;;;;;;8.60;4.32;;;;;;;;;;5015164;28;20071;-59
2023/03/18 02:00:40;;;;;;;13.07;5.28;;;;;;;;;;5012552;28;20136;-59
2023/03/18 02:03:07;;;;;;;17.33;7.95;;;;;;;;;;5013738;28;20107;-60
2023/03/18 02:05:34;;;;;;;13.27;6.22;;;;;;;;;;5012546;28;20124;-59
2023/03/18 02:08:01;;;;;;;20.75;9.77;;;;;;;;;;5014184;28;20034;-60
2023/03/18 02:10:29;;;;;;;20.48;9.90;;;;;;;;;;5012813;28;20048;-59
2023/03/18 02:13:00;;;;;;;19.25;9.63;;;;;;;;;;5012409;28;20038;-59
2023/03/18 02:15:28;;;;;;;20.35;10.95;;;;;;;;;;5026407;28;20171;-59
2023/03/18 02:17:58;;;;;;;28.17;12.93;;;;;;;;;;5014456;28;20044;-60
2023/03/18 02:20:43;;;;;;;15.05;7.95;;;;;;;;;;5012903;28;20041;-58
2023/03/18 02:23:28;;;;;;;12.02;5.35;;;;;;;;;;5013280;28;20057;-58
2023/03/18 02:26:16;;;;;;;8.80;3.40;;;;;;;;;;5011901;28;20057;-58
2023/03/18 02:28:43;;;;;;;11.10;3.58;;;;;;;;;;5000648;28;20112;-58
2023/03/18 02:31:12;;;;;;;8.65;3.55;;;;;;;;;;5012436;28;20056;-58
2023/03/18 02:33:40;;;;;;;16.92;4.50;;;;;;;;;;5012172;28;20050;-60
2023/03/18 02:36:10;;;;;;;13.40;5.07;;;;;;;;;;5013234;28;20057;-58
2023/03/18 02:38:41;;;;;;;10.55;5.30;;;;;;;;;;5013807;28;22397;-59
2023/03/18 02:41:28;;;;;;;11.63;5.75;;;;;;;;;;5012097;28;20106;-59
2023/03/18 02:43:55;;;;;;;10.13;6.15;;;;;;;;;;5015936;28;20066;-60
2023/03/18 02:46:38;;;;;;;11.07;5.22;;;;;;;;;;5010551;28;20490;-61
2023/03/18 02:49:06;;;;;;;9.77;4.72;;;;;;;;;;5012468;28;20134;-59
2023/03/18 02:51:34;;;;;;;9.95;4.95;;;;;;;;;;5011698;28;20053;-56
2023/03/18 02:54:03;;;;;;;13.43;4.97;;;;;;;;;;5013375;28;20030;-59
2023/03/18 02:56:30;;;;;;;11.95;5.35;;;;;;;;;;5011273;28;20146;-59
2023/03/18 02:58:56;;;;;;;11.05;5.18;;;;;;;;;;5012266;28;20041;-60
2023/03/18 03:01:23;;;;;;;14.93;5.75;;;;;;;;;;5012873;28;20037;-62
2023/03/18 03:03:50;;;;;;;15.13;6.47;;;;;;;;;;5010801;28;20047;-59
2023/03/18 03:06:17;;;;;;;13.45;6.18;;;;;;;;;;5012337;28;20095;-59
2023/03/18 03:08:44;;;;;;;14.35;7.05;;;;;;;;;;5012622;28;20036;-61
2023/03/18 03:11:10;;;;;;;10.57;5.57;;;;;;;;;;5012600;28;20045;-59
2023/03/18 03:13:39;;;;;;;14.50;5.65;;;;;;;;;;5010958;28;20473;-59
2023/03/18 03:16:06;;;;;;;12.00;5.28;;;;;;;;;;5011857;28;21941;-59
2023/03/18 03:18:34;;;;;;;10.82;5.05;;;;;;;;;;5010315;28;20422;-61
2023/03/18 03:21:01;;;;;;;15.30;5.80;;;;;;;;;;5005983;28;20041;-58
2023/03/18 03:23:28;;;;;;;9.73;4.90;;;;;;;;;;5012788;28;20041;-58
2023/03/18 03:25:56;;;;;;;9.05;4.88;;;;;;;;;;5010833;28;20570;-59
2023/03/18 03:28:22;;;;;;;10.38;3.80;;;;;;;;;;5012311;28;20125;-61
2023/03/18 03:30:49;;;;;;;12.43;5.00;;;;;;;;;;5013285;28;20061;-62
2023/03/18 03:33:16;;;;;;;10.65;4.20;;;;;;;;;;5013513;28;20600;-61
2023/03/18 03:35:43;;;;;;;11.32;3.63;;;;;;;;;;5011008;28;20060;-59
2023/03/18 03:38:10;;;;;;;10.57;3.75;;;;;;;;;;5014424;28;20045;-61
2023/03/18 03:40:37;;;;;;;11.73;3.92;;;;;;;;;;5012458;28;20037;-59
2023/03/18 03:43:05;;;;;;;11.43;4.07;;;;;;;;;;5011432;28;21829;-63
2023/03/18 03:45:32;;;;;;;9.45;4.22;;;;;;;;;;5010604;28;20175;-62
2023/03/18 03:47:59;;;;;;;9.57;4.30;;;;;;;;;;5011747;28;20042;-62
2023/03/18 03:50:26;;;;;;;14.27;5.10;;;;;;;;;;5010911;28;20908;-61
2023/03/18 03:52:53;;;;;;;11.05;4.22;;;;;;;;;;5013264;28;20033;-59
2023/03/18 03:55:20;;;;;;;12.60;5.00;;;;;;;;;;5011412;28;20072;-60
2023/03/18 03:57:47;;;;;;;13.18;4.78;;;;;;;;;;5011090;28;20137;-59
2023/03/18 04:00:15;;;;;;;9.95;4.22;;;;;;;;;;5012705;28;20080;-61
2023/03/18 04:02:43;;;;;;;10.15;4.53;;;;;;;;;;5013366;28;20211;-62
2023/03/18 04:05:11;;;;;;;12.65;4.65;;;;;;;;;;5011700;28;20848;-59
2023/03/18 04:07:38;;;;;;;11.20;4.78;;;;;;;;;;5010934;28;21824;-59
2023/03/18 04:10:08;;;;;;;11.70;4.68;;;;;;;;;;5011632;28;20036;-61
2023/03/18 04:12:35;;;;;;;9.25;4.10;;;;;;;;;;5011403;28;20049;-58
2023/03/18 04:15:01;;;;;;;17.52;6.60;;;;;;;;;;5010929;28;20038;-57
2023/03/18 04:17:28;;;;;;;14.52;5.85;;;;;;;;;;5011265;28;20048;-60
2023/03/18 04:19:55;;;;;;;12.30;4.72;;;;;;;;;;5011793;28;20033;-58
2023/03/18 04:22:22;;;;;;;13.02;4.97;;;;;;;;;;5011591;28;20502;-58
2023/03/18 04:24:49;;;;;;;12.10;5.78;;;;;;;;;;5012534;28;20041;-60
2023/03/18 04:27:17;;;;;;;16.27;5.60;;;;;;;;;;5012236;28;20052;-61
2023/03/18 04:29:44;;;;;;;11.80;5.15;;;;;;;;;;5010725;28;20042;-59
2023/03/18 04:32:11;;;;;;;13.32;5.55;;;;;;;;;;5010898;28;20056;-57
2023/03/18 04:34:38;;;;;;;12.55;4.82;;;;;;;;;;5010598;28;20105;-59
2023/03/18 04:37:04;;;;;;;13.05;5.10;;;;;;;;;;5011109;28;20156;-59
2023/03/18 04:39:31;;;;;;;20.90;6.72;;;;;;;;;;5009661;28;20082;-59
2023/03/18 04:41:57;;;;;;;14.45;5.38;;;;;;;;;;5012630;28;20731;-58
2023/03/18 04:44:24;;;;;;;12.25;5.25;;;;;;;;;;5011782;28;20152;-57
2023/03/18 04:46:52;;;;;;;11.50;5.30;;;;;;;;;;5011303;28;20360;-58
2023/03/18 04:49:19;;;;;;;12.70;6.03;;;;;;;;;;5012654;28;20049;-65
2023/03/18 04:51:46;;;;;;;17.65;5.63;;;;;;;;;;5013292;28;20775;-60
2023/03/18 04:54:12;;;;;;;14.43;5.70;;;;;;;;;;5004868;28;20029;-57
2023/03/18 04:56:39;;;;;;;14.75;6.13;;;;;;;;;;5009728;28;20739;-58
2023/03/18 04:59:06;;;;;;;14.75;5.50;;;;;;;;;;5011639;28;20390;-60
2023/03/18 05:01:32;;;;;;;14.48;6.13;;;;;;;;;;5011787;28;20041;-59
2023/03/18 05:04:00;;;;;;;14.35;6.32;;;;;;;;;;5013497;28;20045;-60
2023/03/18 05:06:27;;;;;;;9.75;4.90;;;;;;;;;;5040954;28;20049;-58
2023/03/18 05:08:55;;;;;;;15.95;5.75;;;;;;;;;;5012313;28;20119;-59
2023/03/18 05:11:22;;;;;;;16.15;5.35;;;;;;;;;;5010170;28;20034;-59
2023/03/18 05:13:49;;;;;;;15.95;5.80;;;;;;;;;;5011293;28;20029;-58
2023/03/18 05:16:16;;;;;;;11.00;5.28;;;;;;;;;;5010364;28;20049;-57
2023/03/18 05:18:43;;;;;;;13.13;5.43;;;;;;;;;;5011417;28;20044;-59
2023/03/18 05:21:10;;;;;;;17.67;5.50;;;;;;;;;;5012055;28;20076;-59
2023/03/18 05:23:37;;;;;;;19.67;5.80;;;;;;;;;;5009552;28;20123;-58
2023/03/18 05:26:04;;;;;;;15.73;5.20;;;;;;;;;;5010764;28;20034;-59
2023/03/18 05:28:31;;;;;;;12.40;5.30;;;;;;;;;;5013330;28;20072;-61
2023/03/18 05:30:58;;;;;;;14.50;5.43;;;;;;;;;;5015427;28;20581;-59
2023/03/18 05:33:24;;;;;;;18.35;5.97;;;;;;;;;;5013736;28;20067;-58
2023/03/18 05:35:51;;;;;;;12.88;5.35;;;;;;;;;;5013973;28;20060;-67
2023/03/18 05:38:18;;;;;;;14.38;5.22;;;;;;;;;;5016189;28;20124;-59
2023/03/18 05:40:45;;;;;;;15.27;5.43;;;;;;;;;;5013928;28;20042;-59
2023/03/18 05:43:11;;;;;;;12.82;5.80;;;;;;;;;;5014292;28;20048;-60
2023/03/18 05:45:38;;;;;;;11.82;5.10;;;;;;;;;;5013868;28;20052;-59
2023/03/18 05:48:05;;;;;;;9.57;4.45;;;;;;;;;;5015609;28;20041;-59
2023/03/18 05:50:34;;;;;;;14.05;5.10;;;;;;;;;;5014845;28;20047;-59
2023/03/18 05:53:01;;;;;;;17.48;5.38;;;;;;;;;;5015897;28;20041;-62
2023/03/18 05:55:28;;;;;;;15.80;5.18;;;;;;;;;;5012574;28;20217;-60
2023/03/18 05:57:55;;;;;;;12.27;5.75;;;;;;;;;;5013408;28;20026;-60
2023/03/18 06:00:23;;;;;;;13.55;4.93;;;;;;;;;;5016336;28;20042;-59
2023/03/18 06:02:51;;;;;;;11.63;4.60;;;;;;;;;;5014284;28;22246;-62
2023/03/18 06:05:18;;;;;;;10.35;5.10;;;;;;;;;;5013423;28;20133;-61
2023/03/18 06:07:45;;;;;;;12.77;4.82;;;;;;;;;;5014308;28;20051;-62
2023/03/18 06:10:12;;;;;;;13.65;4.55;;;;;;;;;;5014113;28;20123;-59
2023/03/18 06:12:40;;;;;;;13.10;4.75;;;;;;;;;;5013647;28;20225;-60
2023/03/18 06:15:07;;;;;;;11.45;4.90;;;;;;;;;;5013499;28;20040;-59
2023/03/18 06:17:34;;;;;;;15.70;5.10;;;;;;;;;;5013447;28;20727;-62
2023/03/18 06:20:01;;;;;;;15.07;4.65;;;;;;;;;;5015412;28;20462;-66
2023/03/18 06:22:27;;;;;;;10.30;4.05;;;;;;;;;;5013989;28;20045;-61
2023/03/18 06:24:54;;;;;;;9.77;4.45;;;;;;;;;;5013873;28;20041;-62
2023/03/18 06:27:21;;;;;;;13.05;5.03;;;;;;;;;;5028717;28;20033;-60
2023/03/18 06:29:47;;;;;;;13.00;4.85;;;;;;;;;;5014260;28;20044;-60
2023/03/18 06:32:14;;;;;;;11.05;4.75;;;;;;;;;;5013467;28;20805;-63
2023/03/18 06:34:41;;;;;;;12.90;4.43;;;;;;;;;;5012579;28;20056;-61
2023/03/18 06:37:08;;;;;;;13.43;4.53;;;;;;;;;;5013786;28;20045;-62
2023/03/18 06:39:35;;;;;;;10.98;4.38;;;;;;;;;;5014668;28;20672;-60
2023/03/18 06:42:02;;;;;;;12.15;4.82;;;;;;;;;;5012848;28;20141;-61
2023/03/18 06:44:28;;;;;;;10.63;4.60;;;;;;;;;;5013242;28;20049;-61
2023/03/18 06:46:55;;;;;;;13.63;4.70;;;;;;;;;;5012497;28;20063;-61
2023/03/18 06:49:22;;;;;;;13.65;4.68;;;;;;;;;;5026458;28;20156;-62
2023/03/18 06:51:49;;;;;;;11.00;4.85;;;;;;;;;;5013737;28;20041;-59
2023/03/18 06:54:17;;;;;;;12.35;4.95;;;;;;;;;;5013650;28;20151;-58
2023/03/18 06:56:43;;;;;;;9.48;4.47;;;;;;;;;;5011619;28;20061;-61
2023/03/18 06:59:10;;;;;;;16.13;4.47;;;;;;;;;;5014826;28;20065;-62
2023/03/18 07:01:37;;;;;;;15.20;4.72;;;;;;;;;;5013367;28;20467;-60
2023/03/18 07:04:05;;;;;;;11.30;4.60;;;;;;;;;;5013142;28;20072;-61
2023/03/18 07:06:32;;;;;;;10.38;4.38;;;;;;;;;;5011875;28;20132;-60
2023/03/18 07:09:00;;;;;;;9.98;5.07;;;;;;;;;;5014275;28;20038;-62
2023/03/18 07:11:26;;;;;;;15.02;4.30;;;;;;;;;;5012724;28;20292;-60
2023/03/18 07:13:53;;;;;;;10.55;4.50;;;;;;;;;;5012543;28;22256;-62
2023/03/18 07:16:20;;;;;;;14.68;4.60;;;;;;;;;;5012364;28;20042;-62
2023/03/18 07:18:46;;;;;;;9.30;4.32;;;;;;;;;;5014240;28;20033;-61
2023/03/18 07:21:13;;;;;;;14.18;4.80;;;;;;;;;;5013668;28;20498;-65
2023/03/18 07:23:40;;;;;;;18.15;5.10;;;;;;;;;;5013727;28;20116;-59
2023/03/18 07:26:07;;;;;;;12.32;4.95;;;;;;;;;;5013156;28;20055;-59
2023/03/18 07:28:34;;;;;;;13.25;4.75;;;;;;;;;;5011328;28;20037;-61
2023/03/18 07:31:01;;;;;;;16.48;4.90;;;;;;;;;;5014239;28;20595;-61
2023/03/18 07:33:28;;;;;;;17.80;5.20;;;;;;;;;;5012854;28;20175;-61
2023/03/18 07:35:55;;;;;;;19.13;4.93;;;;;;;;;;5011513;28;20068;-59
2023/03/18 07:38:23;;;;;;;11.98;4.70;;;;;;;;;;5012044;28;20083;-59
2023/03/18 07:40:50;;;;;;;12.38;4.63;;;;;;;;;;5015273;28;20037;-59
2023/03/18 07:43:17;;;;;;;10.18;4.38;;;;;;;;;;5012727;28;20045;-59
2023/03/18 07:45:44;;;;;;;16.13;5.07;;;;;;;;;;5012073;28;20136;-58
2023/03/18 07:48:11;;;;;;;15.75;5.35;;;;;;;;;;5011666;28;20128;-62
2023/03/18 07:50:38;;;;;;;12.32;4.57;;;;;;;;;;5010997;28;20045;-59
2023/03/18 07:53:04;;;;;;;13.93;5.25;;;;;;;;;;5013961;28;20497;-59
2023/03/18 07:55:31;;;;;;;15.65;4.72;;;;;;;;;;5011365;28;20049;-60
2023/03/18 07:57:58;;;;;;;11.10;4.78;;;;;;;;;;5013103;28;20039;-58
2023/03/18 08:00:26;;;;;;;11.75;5.05;;;;;;;;;;5012110;28;20041;-59
2023/03/18 08:02:52;;;;;;;11.45;5.07;;;;;;;;;;5011980;28;20026;-62
2023/03/18 08:05:20;;;;;;;13.10;4.93;;;;;;;;;;5012952;28;20042;-59
2023/03/18 08:07:47;;;;;;;11.32;4.90;;;;;;;;;;5011357;28;20045;-60
2023/03/18 08:10:14;;;;;;;12.05;4.80;;;;;;;;;;5012554;28;20049;-62
2023/03/18 08:12:41;;;;;;;8.80;4.40;;;;;;;;;;5011808;28;20478;-60
2023/03/18 08:15:08;;;;;;;18.75;5.18;;;;;;;;;;5011560;28;20045;-59
2023/03/18 08:17:35;;;;;;;13.48;4.43;;;;;;;;;;5011734;28;20042;-62
2023/03/18 08:20:02;;;;;;;12.10;5.22;;;;;;;;;;5012357;28;20091;-62
2023/03/18 08:22:29;;;;;;;11.82;4.65;;;;;;;;;;5011997;28;20045;-59
2023/03/18 08:24:57;;;;;;;11.23;5.18;;;;;;;;;;5011068;28;20430;-59
2023/03/18 08:27:23;;;;;;;12.52;4.75;;;;;;;;;;5013155;28;20120;-59
2023/03/18 08:29:50;;;;;;;10.23;4.97;;;;;;;;;;5012024;28;20517;-61
2023/03/18 08:32:18;;;;;;;9.75;4.93;;;;;;;;;;5025980;28;20072;-61
2023/03/18 08:34:45;;;;;;;13.10;4.72;;;;;;;;;;5010383;28;20111;-60
2023/03/18 08:37:12;;;;;;;19.48;5.63;;;;;;;;;;5012423;28;20061;-64
2023/03/18 08:39:38;;;;;;;11.95;5.03;;;;;;;;;;5010821;28;20042;-61
2023/03/18 08:42:05;;;;;;;10.48;5.15;;;;;;;;;;5011917;28;20603;-60
2023/03/18 08:44:32;;;;;;;16.17;6.30;;;;;;;;;;5011225;28;20121;-61
2023/03/18 08:47:00;;;;;;;12.90;4.90;;;;;;;;;;5010241;28;20113;-59
2023/03/18 08:49:26;;;;;;;9.80;4.70;;;;;;;;;;5011771;28;20128;-59
2023/03/18 08:51:53;;;;;;;16.38;5.18;;;;;;;;;;5013749;28;20046;-59
2023/03/18 08:54:20;;;;;;;18.02;5.25;;;;;;;;;;5010803;28;20128;-61
2023/03/18 08:56:47;;;;;;;14.50;5.15;;;;;;;;;;5011379;28;20058;-61
2023/03/18 08:59:13;;;;;;;12.95;5.47;;;;;;;;;;5010655;28;20419;-59
2023/03/18 09:01:40;;;;;;;16.80;5.30;;;;;;;;;;5011493;28;20049;-59
2023/03/18 09:04:07;;;;;;;17.60;5.10;;;;;;;;;;5016115;28;20096;-62
2023/03/18 09:06:34;;;;;;;12.88;5.00;;;;;;;;;;5015153;28;20109;-60
2023/03/18 09:09:00;;;;;;;21.75;5.80;;;;;;;;;;5015454;28;20890;-59
2023/03/18 09:11:27;;;;;;;10.02;4.72;;;;;;;;;;5014421;28;20041;-62
2023/03/18 09:13:54;;;;;;;11.25;4.32;;;;;;;;;;5015467;28;20042;-60
2023/03/18 09:16:21;;;;;;;14.68;5.03;;;;;;;;;;5013914;28;20053;-61
2023/03/18 09:18:48;;;;;;;12.77;4.75;;;;;;;;;;5014666;28;20708;-61
2023/03/18 09:21:14;;;;;;;15.88;4.97;;;;;;;;;;5017170;28;20053;-62
2023/03/18 09:23:42;;;;;;;14.95;5.07;;;;;;;;;;5015258;28;20041;-60
2023/03/18 09:26:08;;;;;;;14.00;4.75;;;;;;;;;;5015670;28;20034;-61
2023/03/18 09:28:36;;;;;;;10.43;4.90;;;;;;;;;;5015270;28;20411;-59
2023/03/18 09:31:02;;;;;;;18.13;5.22;;;;;;;;;;5017190;28;20029;-60
2023/03/18 09:33:29;;;;;;;13.82;6.07;;;;;;;;;;5015233;28;20125;-59
2023/03/18 09:35:56;;;;;;;10.05;4.50;;;;;;;;;;5015718;28;20045;-62
2023/03/18 09:38:22;;;;;;;12.75;5.45;;;;;;;;;;5014846;28;20140;-60
2023/03/18 09:41:07;;;;;;;13.25;4.50;;;;;;;;;;5016204;28;20140;-59
2023/03/18 09:43:40;;;;;;;14.68;4.80;;;;;;;;;;5037718;28;20044;-60
2023/03/18 09:46:11;;;;;;;12.25;5.38;;;;;;;;;;5015478;28;20045;-59
2023/03/18 09:48:58;;;;;;;19.00;4.60;;;;;;;;;;5014256;28;20046;-59
2023/03/18 09:51:37;;;;;;;20.15;4.38;;;;;;;;;;5013101;28;20250;-60
2023/03/18 09:54:22;;;;;;;12.77;4.85;;;;;;;;;;5015020;28;20545;-59
2023/03/18 09:56:51;;;;;;;12.88;4.80;;;;;;;;;;5005518;28;20053;-59
2023/03/18 09:59:29;;;;;;;15.13;4.55;;;;;;;;;;5015662;28;20065;-61
2023/03/18 10:01:57;;;;;;;9.35;3.88;;;;;;;;;;5016353;28;20045;-58
2023/03/18 10:04:26;;;;;;;10.52;4.25;;;;;;;;;;5008324;28;20138;-59
2023/03/18 10:07:03;;;;;;;15.32;4.60;;;;;;;;;;5015187;28;20255;-61
2023/03/18 10:09:38;;;;;;;8.73;3.92;;;;;;;;;;5014495;28;20041;-60
2023/03/18 10:12:15;;;;;;;11.25;4.25;;;;;;;;;;5014616;28;20606;-60
2023/03/18 10:15:00;;;;;;;8.98;3.63;;;;;;;;;;5012116;28;20450;-59
2023/03/18 10:17:32;;;;;;;9.30;3.80;;;;;;;;;;5027145;28;20065;-59
2023/03/18 10:20:00;;;;;;;13.23;3.25;;;;;;;;;;5014559;28;20042;-58
2023/03/18 10:22:47;;;;;;;9.52;4.05;;;;;;;;;;5014047;28;20038;-58
2023/03/18 10:25:20;;;;;;;10.30;3.60;;;;;;;;;;4993260;28;20576;-60
2023/03/18 10:27:46;;;;;;;;;;;;;;;;;;5015131;28;20049;-59
2023/03/18 10:30:33;;;;;;;10.80;3.58;;;;;;;;;;5015054;28;19928;-61
2023/03/18 10:33:06;;;;;;;13.45;3.05;;;;;;;;;;5010005;28;20030;-59
2023/03/18 10:35:48;;;;;;;8.88;2.58;;;;;;;;;;5012699;28;20045;-58
2023/03/18 10:38:25;;;;;;;10.23;3.05;;;;;;;;;;5013826;28;20073;-60
2023/03/18 10:40:53;;;;;;;9.48;3.70;;;;;;;;;;5012972;28;21154;-61
2023/03/18 10:43:23;;;;;;;9.23;3.35;;;;;;;;;;5012869;28;20044;-62
2023/03/18 10:45:55;;;;;;;8.82;3.08;;;;;;;;;;5013778;28;20053;-61
2023/03/18 10:48:27;;;;;;;18.02;3.25;;;;;;;;;;5013553;28;20132;-62
2023/03/18 10:50:56;;;;;;;11.48;3.42;;;;;;;;;;5013402;28;20042;-60
2023/03/18 10:53:44;;;;;;;10.38;3.10;;;;;;;;;;5012797;28;20057;-63
2023/03/18 10:56:12;;;;;;;7.70;2.67;;;;;;;;;;5000929;28;20541;-60
2023/03/18 10:58:40;;;;;;;11.57;3.33;;;;;;;;;;5012009;28;20375;-60
2023/03/18 11:01:11;;;;;;;15.98;4.07;;;;;;;;;;5026987;28;20147;-63
2023/03/18 11:03:54;;;;;;;10.35;3.25;;;;;;;;;;5013567;28;20091;-63
2023/03/18 11:06:43;;;;;;;14.25;3.40;;;;;;;;;;5010428;28;20036;-59
2023/03/18 11:09:12;;;;;;;7.43;2.58;;;;;;;;;;5012714;28;20069;-63
2023/03/18 11:11:40;;;;;;;9.93;3.63;;;;;;;;;;5016158;28;20034;-61
2023/03/18 11:14:08;;;;;;;11.43;3.10;;;;;;;;;;5012021;28;20065;-60
2023/03/18 11:16:45;;;;;;;12.13;3.50;;;;;;;;;;5011389;28;20132;-60
2023/03/18 11:19:38;;;;;;;12.25;2.92;;;;;;;;;;5014217;28;20053;-61
2023/03/18 11:22:23;;;;;;;16.85;4.10;;;;;;;;;;5011770;28;20398;-59
2023/03/18 11:25:04;;;;;;;13.52;3.63;;;;;;;;;;5012089;28;20045;-61
2023/03/18 11:27:48;;;;;;;18.02;4.15;;;;;;;;;;5013126;28;20520;-60
2023/03/18 11:30:19;;;;;;;12.82;3.53;;;;;;;;;;5045007;28;20099;-61
2023/03/18 11:33:16;;;;;;;12.60;4.20;;;;;;;;;;5011495;28;20080;-62
2023/03/18 11:35:50;;;;;;;12.70;3.60;;;;;;;;;;5006324;28;20072;-60
2023/03/18 11:38:27;;;;;;;15.00;3.72;;;;;;;;;;5012671;28;20037;-60
2023/03/18 11:41:07;;;;;;;13.85;3.85;;;;;;;;;;5013767;28;20437;-63
2023/03/18 11:43:35;;;;;;;10.43;3.33;;;;;;;;;;5012239;28;20422;-60
2023/03/18 11:46:12;;;;;;;19.48;3.95;;;;;;;;;;5013645;28;20913;-63
2023/03/18 11:48:39;;;;;;;7.97;3.15;;;;;;;;;;5024907;28;20045;-61
2023/03/18 11:51:19;;;;;;;11.43;3.60;;;;;;;;;;5012984;28;20097;-62
2023/03/18 11:53:46;;;;;;;9.27;3.20;;;;;;;;;;5010336;28;20042;-58
2023/03/18 11:56:31;;;;;;;15.00;3.50;;;;;;;;;;5010895;28;20054;-64
2023/03/18 11:59:07;;;;;;;12.48;3.20;;;;;;;;;;5045027;28;20065;-61
2023/03/18 12:01:33;;;;;;;11.68;3.15;;;;;;;;;;5011650;28;20034;-60
2023/03/18 12:04:32;;;;;;;12.52;3.35;;;;;;;;;;5012483;28;20402;-60
2023/03/18 12:07:15;;;;;;;14.40;3.25;;;;;;;;;;4999232;28;20045;-60
2023/03/18 12:09:47;;;;;;;8.70;3.17;;;;;;;;;;5012311;28;20046;-62
2023/03/18 12:12:23;;;;;;;6.78;2.35;;;;;;;;;;5012748;28;20143;-60
2023/03/18 12:14:53;;;;;;;18.15;3.30;;;;;;;;;;5012019;28;20049;-60
2023/03/18 12:17:35;;;;;;;11.48;3.10;;;;;;;;;;5010862;28;20046;-59
2023/03/18 12:20:08;;;;;;;15.25;3.03;;;;;;;;;;5013067;28;20683;-58
2023/03/18 12:22:36;;;;;;;;;;;;;;;;;;5011754;28;20045;-60
2023/03/18 12:25:21;;;;;;;9.60;3.08;;;;;;;;;;5025919;28;20008;-59
2023/03/18 12:28:09;;;;;;;6.20;2.67;;;;;;;;;;5012217;28;20156;-60
2023/03/18 12:30:37;;;;;;;12.60;3.35;;;;;;;;;;5011201;28;20046;-61
2023/03/18 12:33:19;;;;;;;11.45;3.72;;;;;;;;;;5011274;28;20034;-61
2023/03/18 12:35:46;;;;;;;10.27;2.55;;;;;;;;;;5010404;28;20103;-58
2023/03/18 12:38:30;;;;;;;12.63;3.15;;;;;;;;;;5011836;28;20033;-59
2023/03/18 12:41:16;;;;;;;13.65;3.13;;;;;;;;;;5011667;28;20418;-62
2023/03/18 12:44:01;;;;;;;7.20;2.67;;;;;;;;;;5025140;28;20093;-60
2023/03/18 12:46:33;;;;;;;14.60;2.40;;;;;;;;;;5011840;28;20041;-61
2023/03/18 12:49:08;;;;;;;15.63;2.75;;;;;;;;;;5011514;28;20037;-61
2023/03/18 12:51:41;;;;;;;12.98;2.92;;;;;;;;;;5012108;28;20084;-61
2023/03/18 12:54:10;;;;;;;12.98;2.70;;;;;;;;;;5012391;28;20743;-60
2023/03/18 12:56:42;;;;;;;7.25;2.55;;;;;;;;;;5009445;28;20061;-59
2023/03/18 12:59:08;;;;;;;11.68;2.65;;;;;;;;;;5013438;28;20041;-60
2023/03/18 13:01:44;;;;;;;9.50;2.70;;;;;;;;;;5010874;28;20083;-62
2023/03/18 13:04:18;;;;;;;13.02;3.28;;;;;;;;;;5009681;28;20049;-60
2023/03/18 13:06:48;;;;;;;9.57;3.50;;;;;;;;;;5011673;28;20049;-61
2023/03/18 13:09:35;;;;;;;12.38;2.83;;;;;;;;;;5012392;28;20054;-62
2023/03/18 13:12:06;;;;;;;15.40;2.67;;;;;;;;;;5003680;28;20069;-67
2023/03/18 13:14:51;;;;;;;7.10;2.83;;;;;;;;;;5010926;28;20052;-64
2023/03/18 13:17:30;;;;;;;8.80;2.53;;;;;;;;;;5011922;28;20045;-61
2023/03/18 13:20:00;;;;;;;6.38;2.35;;;;;;;;;;5010865;28;20042;-60
2023/03/18 13:22:27;;;;;;;7.65;2.70;;;;;;;;;;5009864;28;20056;-60
2023/03/18 13:25:00;;;;;;;20.40;3.72;;;;;;;;;;5011881;28;20171;-62
2023/03/18 13:27:37;;;;;;;14.02;2.60;;;;;;;;;;5012660;28;20175;-60
2023/03/18 13:30:05;;;;;;;6.13;2.97;;;;;;;;;;5011316;28;20112;-61
2023/03/18 13:32:34;;;;;;;8.20;2.75;;;;;;;;;;5010647;28;20045;-59
2023/03/18 13:35:20;;;;;;;13.80;2.95;;;;;;;;;;5010606;28;20037;-61
2023/03/18 13:37:59;;;;;;;10.27;2.53;;;;;;;;;;5011236;28;20475;-61
2023/03/18 13:40:29;;;;;;;8.05;2.47;;;;;;;;;;5011826;28;20541;-61
2023/03/18 13:42:58;;;;;;;12.32;2.70;;;;;;;;;;5010060;28;20061;-61
2023/03/18 13:45:32;;;;;;;8.55;2.60;;;;;;;;;;5011420;28;20069;-60
2023/03/18 13:48:01;;;;;;;17.48;2.70;;;;;;;;;;5012013;28;20050;-60
2023/03/18 13:50:32;;;;;;;16.00;2.80;;;;;;;;;;5013540;28;20050;-60
2023/03/18 13:53:00;;;;;;;18.48;3.50;;;;;;;;;;5014370;28;20029;-61
2023/03/18 13:55:30;;;;;;;8.57;2.80;;;;;;;;;;5027866;28;20454;-60
2023/03/18 13:58:12;;;;;;;8.88;2.47;;;;;;;;;;5014570;28;20041;-61
2023/03/18 14:00:40;;;;;;;13.88;3.33;;;;;;;;;;5027697;28;20041;-61
2023/03/18 14:03:15;;;;;;;8.65;2.95;;;;;;;;;;5013777;28;20129;-60
2023/03/18 14:05:43;;;;;;;13.85;2.92;;;;;;;;;;5013201;28;20050;-60
2023/03/18 14:08:29;;;;;;;15.18;3.63;;;;;;;;;;5016144;28;20136;-63
2023/03/18 14:11:14;;;;;;;15.00;2.95;;;;;;;;;;5013219;28;20077;-61
2023/03/18 14:13:41;;;;;;;11.93;3.25;;;;;;;;;;5012315;28;20047;-68
2023/03/18 14:16:12;;;;;;;13.55;2.92;;;;;;;;;;5013260;28;20912;-60
2023/03/18 14:18:38;;;;;;;13.32;2.65;;;;;;;;;;5012874;28;20091;-61
2023/03/18 14:21:07;;;;;;;18.52;3.28;;;;;;;;;;5017069;28;20037;-60
2023/03/18 14:23:36;;;;;;;41.75;3.20;;;;;;;;;;5017073;28;20044;-61
2023/03/18 14:26:07;;;;;;;7.50;2.85;;;;;;;;;;5019193;28;20048;-60
2023/03/18 14:28:45;;;;;;;8.60;2.70;;;;;;;;;;5011245;28;20049;-63
2023/03/18 14:31:31;;;;;;;9.90;2.70;;;;;;;;;;5015163;28;20049;-60
2023/03/18 14:34:01;;;;;;;11.18;2.60;;;;;;;;;;5013251;28;20067;-59
2023/03/18 14:36:44;;;;;;;10.38;3.00;;;;;;;;;;5013294;28;20607;-63
2023/03/18 14:39:16;;;;;;;14.65;3.40;;;;;;;;;;5015340;28;20788;-61
2023/03/18 14:41:45;;;;;;;14.73;3.83;;;;;;;;;;5027422;28;20168;-62
2023/03/18 14:44:24;;;;;;;16.10;3.47;;;;;;;;;;5012704;28;20290;-62
2023/03/18 14:46:52;;;;;;;12.05;3.38;;;;;;;;;;5012951;28;20046;-60
2023/03/18 14:49:37;;;;;;;11.32;3.17;;;;;;;;;;5013736;28;20505;-61
2023/03/18 14:52:06;;;;;;;13.23;3.00;;;;;;;;;;5011261;28;20038;-60